Latest Coastal Weather Observations for Cape Flattery

IDQ60701

Issued at 5:31 pm EST Tuesday 9 February 2016 (issued every 10 minutes, with the page automatically refreshed every 10 minutes)

About coastal observations | Map of coastal stations | Coastal observations for QLD | Marine services | Other Formats
Station Details ID: 031213 Name: CAPE FLATTERY Lat: -14.97 Lon: 145.31 Height: 18.5 m
Data from the previous 72 hours. | See also: Recent months at Cape Flattery
Date/Time
EST
Temp

°C
Wind Pressure Rain
since 9am
mm
Weather Cloud Vis
km
Sea
Height
m
Swell
Dir
 
Speed
knots
Gust
knots
hPa Trend Height
m
Period
s
Dir
09/05:30pm 30.0 SSE 17 22 1006.0 - 0.2 - - - - - - -
09/05:00pm 30.3 SE 19 25 1006.1 - 0.2 - - - - - - -
09/04:30pm 30.9 SE 18 25 1005.9 - 0.2 - - - - - - -
09/04:00pm 30.9 SSE 17 23 1005.7 - 0.2 - - - - - - -
09/03:30pm 31.5 SSE 14 18 1005.8 - 0.2 - - - - - - -
09/03:00pm 31.5 SE 14 17 1005.8 - 0.2 - - - - - - -
09/02:30pm 31.5 SSE 14 19 1006.2 - 0.2 - - - - - - -
09/02:00pm 31.6 SE 13 17 1006.5 - 0.2 - - - - - - -
09/01:30pm 31.7 SSE 15 20 1007.3 - 0.2 - - - - - - -
09/01:00pm 31.6 SSE 16 21 1007.8 - 0.2 - - - - - - -
09/12:30pm 32.4 SSE 16 21 1008.0 - 0.2 - - - - - - -
09/12:00pm 31.3 SSE 16 20 1008.3 - 0.2 - - - - - - -
09/11:30am 31.4 S 15 21 1008.7 - 0.2 - - - - - - -
09/11:00am 30.6 SSE 15 19 1008.9 - 0.2 - - - - - - -
09/10:30am 30.0 SSE 15 18 1009.2 - 0.2 - - - - - - -
09/10:00am 30.3 SSE 15 19 1009.4 - 0.2 - - - - - - -
09/09:30am 29.6 SSE 14 19 1009.5 - 0.2 - - - - - - -
09/09:00am 29.9 SSE 15 20 1009.2 - 3.4 - - - - - - -
09/08:30am 28.7 SSE 13 18 1009.1 - 3.4 - - - - - - -
09/08:00am 28.6 S 13 16 1008.8 - 3.4 - - - - - - -
09/07:30am 28.7 SSE 12 17 1008.4 - 3.4 - - - - - - -
09/07:00am 27.9 SSE 10 13 1008.1 - 3.4 - - - - - - -
09/06:30am 27.6 SSE 13 21 1007.6 - 3.4 - - - - - - -
09/06:00am 27.0 S 5 10 1007.4 - 3.2 Rain - - - - - -
09/05:30am 26.5 ESE 6 8 1007.2 - 2.0 - - - - - - -
09/05:00am 27.6 S 5 6 1006.8 - 0.8 - - - - - - -
09/04:30am 26.5 ESE 4 5 1006.7 - 0.8 - - - - - - -
09/04:00am 26.5 ESE 6 7 1006.7 - 0.0 - - - - - - -
09/03:30am 26.8 SE 11 15 1006.9 - 0.0 - - - - - - -
09/03:00am 27.5 SSE 8 10 1006.6 - 0.0 - - - - - - -
09/02:30am 27.4 S 7 10 1006.7 - 0.0 - - - - - - -
09/02:00am 27.4 SSE 7 9 1006.9 - 0.0 - - - - - - -
09/01:30am 26.5 SE 5 6 1007.3 - 0.0 - - - - - - -
09/01:00am 26.8 SE 3 4 1007.9 - 0.0 - - - - - - -
09/12:30am 27.1 E 8 10 1008.5 - 0.0 - - - - - - -
09/12:00am 28.6 SE 14 18 1008.8 - 0.0 - - - - - - -
 
Date/Time
EST
Temp

°C
Wind Pressure Rain
since 9am
mm
Weather Cloud Vis
km
Sea
Height
m
Swell
Dir
 
Speed
knots
Gust
knots
hPa Trend Height
m
Period
s
Dir
08/11:30pm 28.1 S 7 12 1009.0 - 0.0 - - - - - - -
08/11:00pm 28.3 SSW 7 9 1009.3 - 0.0 - - - - - - -
08/10:30pm 27.5 SW 4 5 1009.2 - 0.0 - - - - - - -
08/10:00pm 27.2 SSW 3 6 1009.0 - 0.0 - - - - - - -
08/09:30pm 27.5 W 1 4 1008.6 - 0.0 - - - - - - -
08/09:00pm 28.1 S 4 5 1008.2 - 0.0 - - - - - - -
08/08:30pm 28.0 SE 6 7 1007.9 - 0.0 - - - - - - -
08/08:00pm 27.2 E 4 5 1008.1 - 0.0 - - - - - - -
08/07:30pm 27.5 SW 4 6 1008.1 - 0.0 - - - - - - -
08/07:00pm 28.2 WSW 6 8 1007.9 - 0.0 - - - - - - -
08/06:30pm 28.8 S 7 9 1006.9 - 0.0 - - - - - - -
08/06:00pm 29.6 S 8 11 1006.3 - 0.0 - - - - - - -
08/05:30pm 31.2 SW 10 14 1006.3 - 0.0 - - - - - - -
08/05:00pm 31.7 SW 6 8 1006.0 - 0.0 - - - - - - -
08/04:30pm 30.8 S 6 7 1006.2 - 0.0 - - - - - - -
08/04:00pm 31.7 S 4 7 1006.3 - 0.0 - - - - - - -
08/03:30pm 31.9 NNW 5 7 1006.4 - 0.0 - - - - - - -
08/03:00pm 33.2 NNW 6 9 1006.3 - 0.0 - - - - - - -
08/02:30pm 32.2 N 8 11 1006.4 - 0.0 - - - - - - -
08/02:00pm 33.3 NE 10 13 1006.2 - 0.0 - - - - - - -
08/01:30pm 32.8 NNE 10 14 1006.9 - 0.0 - - - - - - -
08/01:00pm 33.5 NNE 10 13 1007.1 - 0.0 - - - - - - -
08/12:30pm 33.4 NNE 8 12 1007.8 - 0.0 - - - - - - -
08/12:00pm 33.5 NE 8 10 1008.3 - 0.0 - - - - - - -
08/11:30am 33.0 NNE 6 9 1008.9 - 0.0 - - - - - - -
08/11:00am 31.8 NE 7 10 1009.0 - 0.0 - - - - - - -
08/10:30am 32.3 N 8 10 1009.1 - 0.0 - - - - - - -
08/10:00am 32.0 N 5 7 1009.2 - 0.0 - - - - - - -
08/09:30am 32.0 N 6 8 1009.1 - 0.0 - - - - - - -
08/09:00am 30.8 W 5 8 1009.5 - 0.0 - - - - - - -
08/08:30am 31.1 WSW 5 8 1009.5 - 0.0 - - - - - - -
08/08:00am 30.5 WSW 5 6 1009.3 - 0.0 - - - - - - -
08/07:30am 29.6 WSW 3 5 1008.8 - 0.0 - - - - - - -
08/07:00am 27.9 SSW 2 4 1008.4 - 0.0 - - - - - - -
08/06:30am 26.5 SSE 3 4 1008.1 - 0.0 - - - - - - -
08/06:00am 26.3 CALM 0 0 1007.7 - 0.0 - - - - - - -
08/05:30am 26.5 CALM 0 0 1007.5 - 0.0 - - - - - - -
08/05:00am 26.8 CALM 0 0 1007.1 - 0.0 - - - - - - -
08/04:30am 27.0 CALM 0 0 1007.0 - 0.0 - - - - - - -
08/04:00am 27.3 WNW 4 5 1007.2 - 0.0 - - - - - - -
08/03:30am 27.9 NW 4 6 1007.3 - 0.0 - - - - - - -
08/03:00am 28.4 NW 7 8 1007.4 - 0.0 - - - - - - -
08/02:30am 28.7 NW 7 9 1007.3 - 0.0 - - - - - - -
08/02:00am 29.1 NW 9 11 1007.6 - 0.0 - - - - - - -
08/01:30am 29.1 NW 7 9 1008.0 - 0.0 - - - - - - -
08/01:00am 29.4 NNW 10 13 1008.0 - 0.0 - - - - - - -
08/12:30am 29.4 NNW 10 13 1008.2 - 0.0 - - - - - - -
08/12:00am 29.4 NNW 11 15 1008.3 - 0.0 - - - - - - -
 
Date/Time
EST
Temp

°C
Wind Pressure Rain
since 9am
mm
Weather Cloud Vis
km
Sea
Height
m
Swell
Dir
 
Speed
knots
Gust
knots
hPa Trend Height
m
Period
s
Dir
07/11:30pm 29.4 NNW 10 13 1008.2 - 0.0 - - - - - - -
07/11:00pm 29.4 NNW 10 13 1008.2 - 0.0 - - - - - - -
07/10:30pm 29.5 NNW 9 11 1008.5 - 0.0 - - - - - - -
07/10:00pm 29.5 NNW 9 11 1008.4 - 0.0 - - - - - - -
07/09:30pm 29.5 NNW 10 13 1008.3 - 0.0 - - - - - - -
07/09:00pm 29.5 NW 11 14 1008.1 - 0.0 - - - - - - -
07/08:30pm 29.5 NNW 11 14 1007.7 - 0.0 - - - - - - -
07/08:00pm 29.6 NNW 11 14 1007.1 - 0.0 - - - - - - -
07/07:30pm 29.6 NNW 11 16 1006.7 - 0.0 - - - - - - -
07/07:00pm 29.7 NNW 12 17 1006.4 - 0.0 - - - - - - -
07/06:30pm 30.0 NNW 11 16 1006.1 - 0.0 - - - - - - -
07/06:00pm 30.6 NNW 14 17 1005.6 - 0.0 - - - - - - -
07/05:30pm 31.1 NNW 14 18 1005.0 - 0.0 - - - - - - -
07/05:00pm 31.3 NNW 15 20 1004.8 - 0.0 - - - - - - -
07/04:30pm 31.7 NNW 15 20 1004.5 - 0.0 - - - - - - -
07/04:00pm 32.4 NNW 14 20 1004.2 - 0.0 - - - - - - -
07/03:30pm 32.4 NNW 14 19 1004.4 - 0.0 - - - - - - -
07/03:00pm 32.7 NNW 14 18 1004.6 - 0.0 - - - - - - -
07/02:30pm 33.3 NNW 14 19 1004.9 - 0.0 - - - - - - -
07/02:00pm 32.3 NNW 15 19 1005.3 - 0.0 - - - - - - -
07/01:30pm 32.6 N 14 19 1005.7 - 0.0 - - - - - - -
07/01:00pm 32.3 NNW 14 19 1006.1 - 0.0 - - - - - - -
07/12:30pm 32.7 NNW 15 20 1006.6 - 0.0 - - - - - - -
07/12:00pm 33.4 NNW 13 19 1007.1 - 0.0 - - - - - - -
07/11:30am 33.0 NNW 13 17 1007.3 - 0.0 - - - - - - -
07/11:00am 32.5 N 13 16 1007.6 - 0.0 - - - - - - -
07/10:30am 32.2 NNW 13 17 1007.8 - 0.0 - - - - - - -
07/10:00am 32.0 NNW 13 17 1007.9 - 0.0 - - - - - - -
07/09:30am 31.9 NNW 10 13 1007.9 - 0.0 - - - - - - -
07/09:00am 31.7 NNW 9 11 1007.8 - 0.0 - - - - - - -
07/08:30am 30.9 NW 7 9 1007.6 - 0.0 - - - - - - -
07/08:00am 29.7 NW 7 9 1007.6 - 0.0 - - - - - - -
07/07:30am 28.8 NW 5 6 1007.5 - 0.0 - - - - - - -
07/07:00am 26.9 NW 4 4 1007.1 - 0.0 - - - - - - -
07/06:30am 26.8 N 3 4 1006.8 - 0.0 - - - - - - -
07/06:00am 26.5 NW 3 4 1006.4 - 0.0 - - - - - - -
07/05:30am 26.5 CALM 0 0 1005.8 - 0.0 - - - - - - -
07/05:00am 26.2 CALM 0 0 1005.5 - 0.0 - - - - - - -
07/04:30am 25.6 SE 1 3 1005.2 - 0.0 - - - - - - -
07/04:00am 25.8 ESE 3 4 1004.9 - 0.0 - - - - - - -
07/03:30am 26.1 S 3 4 1004.9 - 0.0 - - - - - - -
07/03:00am 26.2 S 4 4 1004.9 - 0.0 - - - - - - -
07/02:30am 26.6 CALM 0 0 1004.9 - 0.0 - - - - - - -
07/02:00am 26.9 WNW 3 4 1005.2 - 0.0 - - - - - - -
07/01:30am 27.2 WSW 3 4 1005.7 - 0.0 - - - - - - -
07/01:00am 27.9 NW 4 6 1006.0 - 0.0 - - - - - - -
07/12:30am 28.9 NNW 8 9 1006.3 - 0.0 - - - - - - -
07/12:00am 29.0 NNW 9 11 1006.5 - 0.0 - - - - - - -
 
Date/Time
EST
Temp

°C
Wind Pressure Rain
since 9am
mm
Weather Cloud Vis
km
Sea
Height
m
Swell
Dir
 
Speed
knots
Gust
knots
hPa Trend Height
m
Period
s
Dir
06/11:30pm 28.9 NW 9 13 1006.8 - 0.0 - - - - - - -
06/11:00pm 29.3 NW 9 11 1006.7 - 0.0 - - - - - - -
06/10:30pm 29.8 NW 13 17 1007.1 - 0.0 - - - - - - -
06/10:00pm 29.8 NNW 14 19 1006.9 - 0.0 - - - - - - -
06/09:30pm 29.8 NNW 16 21 1006.4 - 0.0 - - - - - - -
06/09:00pm 29.7 NNW 15 20 1006.0 - 0.0 - - - - - - -
06/08:30pm 29.6 NNW 13 17 1005.5 - 0.0 - - - - - - -
06/08:00pm 29.5 NNW 14 18 1005.0 - 0.0 - - - - - - -
06/07:30pm 29.5 NNW 14 19 1004.6 - 0.0 - - - - - - -
06/07:00pm 29.6 NNW 13 17 1004.1 - 0.0 - - - - - - -
06/06:30pm 29.8 NNW 16 20 1003.8 - 0.0 - - - - - - -
06/06:00pm 30.4 NNW 14 18 1003.0 - 0.0 - - - - - - -

Other Formats:

Comma delimited format used in spreadsheet applications
http://www.bom.gov.au/fwo/IDQ60701/IDQ60701.94188.axf

JavaScript Object Notation format (JSON) in row-major order
http://www.bom.gov.au/fwo/IDQ60701/IDQ60701.94188.json